Terminal Aerodrome Forecast
Issued by NWS

Home | Current Version | Previous Version | Text Only | Print | Product List | Glossary Off
Versions: 1 2 3 4 5 6 7 8 9 10 11 12 13 14 15 16 17 18 19 20 21

000
FTUS43 KICT 252320
TAFHUT
TAF
KHUT 252320Z 2600/2624 35009KT P6SM BKN025
     FM260200 36007KT P6SM BKN045
     FM260300 36005KT P6SM SCT050
     FM260400 35004KT P6SM SCT250
     FM261100 26004KT 3SM BR FEW005
     FM261400 19007KT P6SM SCT250
     FM262100 35014KT P6SM BKN090=

USA.gov is the U.S. government's official web portal to all federal, state and local government web resources and services.